Time;durP1;ratioP1;P1;durP2;ratioP2;P2;SDS_P1;SDS_P2;PMS_P1;PMS_P2;Temp;Humidity;BMP_temperature;BMP_pressure;BME280_temperature;BME280_humidity;BME280_pressure;Samples;Min_cycle;Max_cycle;Signal;HPM_P1;HPM_P2
2023/09/11 00:01:44;;;;;;;16.00;11.03;;;17.60;99.90;;;;;;5062578;28;20439;-72
2023/09/11 00:04:12;;;;;;;14.80;11.17;;;17.60;99.90;;;;;;5069504;28;21050;-72
2023/09/11 00:06:41;;;;;;;15.13;10.80;;;17.60;99.90;;;;;;5070090;28;20859;-72
2023/09/11 00:09:09;;;;;;;15.43;10.60;;;17.60;99.90;;;;;;5070021;28;20544;-72
2023/09/11 00:11:38;;;;;;;16.07;10.30;;;17.60;99.90;;;;;;5070164;28;20924;-71
2023/09/11 00:14:06;;;;;;;15.77;10.73;;;17.60;99.90;;;;;;5069866;28;20825;-71
2023/09/11 00:16:34;;;;;;;16.23;11.87;;;17.60;99.90;;;;;;5062021;28;20483;-71
2023/09/11 00:19:03;;;;;;;18.20;11.80;;;17.60;99.90;;;;;;5061060;28;20475;-71
2023/09/11 00:21:30;;;;;;;16.23;11.87;;;17.60;99.90;;;;;;5050287;28;20463;-71
2023/09/11 00:23:58;;;;;;;14.60;9.80;;;17.50;99.90;;;;;;5050023;28;20988;-71
2023/09/11 00:26:26;;;;;;;16.10;9.83;;;17.40;99.90;;;;;;5049848;28;20479;-72
2023/09/11 00:28:56;;;;;;;14.80;10.10;;;17.30;99.90;;;;;;5050047;28;20526;-71
2023/09/11 00:31:24;;;;;;;15.90;11.23;;;17.40;99.90;;;;;;5049653;28;20603;-72
2023/09/11 00:33:52;;;;;;;16.27;11.00;;;17.30;99.90;;;;;;5049266;28;20448;-72
2023/09/11 00:36:20;;;;;;;16.60;12.27;;;17.20;99.90;;;;;;5049517;28;20452;-72
2023/09/11 00:38:50;;;;;;;22.20;11.77;;;17.20;99.90;;;;;;5049269;28;20472;-72
2023/09/11 00:41:18;;;;;;;17.20;10.97;;;17.20;99.90;;;;;;5049821;28;20444;-72
2023/09/11 00:43:46;;;;;;;18.77;13.03;;;17.30;99.90;;;;;;5048771;28;20451;-72
2023/09/11 00:46:16;;;;;;;18.70;12.97;;;17.20;99.90;;;;;;5049776;28;20483;-72
2023/09/11 00:48:44;;;;;;;16.37;11.27;;;17.10;99.90;;;;;;5049604;28;20475;-72
2023/09/11 00:51:12;;;;;;;17.80;11.93;;;17.20;99.90;;;;;;5049651;28;20554;-72
2023/09/11 00:53:40;;;;;;;15.70;12.40;;;17.10;99.90;;;;;;5048888;28;20452;-72
2023/09/11 00:56:08;;;;;;;17.90;12.07;;;17.10;99.90;;;;;;5049861;28;20456;-72
2023/09/11 00:58:37;;;;;;;19.90;13.00;;;17.10;99.90;;;;;;5049104;28;20468;-72
2023/09/11 01:01:06;;;;;;;16.57;11.97;;;17.00;99.90;;;;;;5049533;28;20447;-71
2023/09/11 01:03:36;;;;;;;17.63;11.87;;;17.00;99.90;;;;;;5049313;28;20456;-72
2023/09/11 01:06:04;;;;;;;16.47;10.93;;;17.00;99.90;;;;;;5052256;28;20452;-71
2023/09/11 01:08:32;;;;;;;18.47;12.07;;;16.90;99.90;;;;;;5053612;28;21150;-71
2023/09/11 01:11:00;;;;;;;16.77;11.40;;;17.00;99.90;;;;;;5053183;28;20448;-72
2023/09/11 01:13:28;;;;;;;16.57;11.17;;;16.90;99.90;;;;;;5053207;28;20513;-73
2023/09/11 01:16:03;;;;;;;15.83;11.90;;;16.90;99.90;;;;;;5053047;28;20533;-72
2023/09/11 01:18:40;;;;;;;18.90;12.20;;;16.80;99.90;;;;;;5053462;28;20486;-71
2023/09/11 01:21:47;;;;;;;15.90;11.93;;;16.90;99.90;;;;;;5053181;28;20479;-73
2023/09/11 01:24:46;;;;;;;17.30;12.00;;;16.90;99.90;;;;;;5053053;28;20572;-71
2023/09/11 01:27:36;;;;;;;16.37;11.63;;;16.90;99.90;;;;;;5053392;28;21047;-71
2023/09/11 01:30:07;;;;;;;15.03;11.57;;;16.90;99.90;;;;;;5053682;28;20488;-71
2023/09/11 01:32:37;;;;;;;21.20;15.20;;;16.80;99.90;;;;;;5052777;28;20487;-71
2023/09/11 01:35:06;;;;;;;17.70;12.43;;;16.80;99.90;;;;;;5053074;28;20479;-72
2023/09/11 01:37:33;;;;;;;15.17;11.77;;;16.70;99.90;;;;;;5052901;28;20507;-71
2023/09/11 01:40:01;;;;;;;18.60;13.87;;;16.60;99.90;;;;;;5052850;28;20478;-71
2023/09/11 01:42:34;;;;;;;17.43;12.37;;;16.60;99.90;;;;;;5052840;28;20869;-71
2023/09/11 01:45:04;;;;;;;17.73;13.17;;;16.50;99.90;;;;;;5052950;28;20447;-71
2023/09/11 01:47:34;;;;;;;15.57;11.93;;;16.50;99.90;;;;;;5063830;28;20547;-71
2023/09/11 01:50:05;;;;;;;15.90;11.80;;;16.60;99.90;;;;;;5063327;28;20459;-71
2023/09/11 01:52:34;;;;;;;16.77;12.73;;;16.50;99.90;;;;;;5069841;28;20528;-71
2023/09/11 01:55:03;;;;;;;16.43;11.90;;;16.50;99.90;;;;;;5060818;28;20538;-72
2023/09/11 01:57:31;;;;;;;17.57;13.27;;;16.50;99.90;;;;;;5062275;28;20454;-71
2023/09/11 01:59:59;;;;;;;18.53;12.87;;;16.40;99.90;;;;;;5068504;28;20516;-71
2023/09/11 02:02:29;;;;;;;15.90;12.20;;;16.40;99.90;;;;;;5071715;28;20531;-70
2023/09/11 02:04:59;;;;;;;17.90;11.70;;;16.40;99.90;;;;;;5072130;28;20490;-72
2023/09/11 02:07:27;;;;;;;16.80;12.13;;;16.50;99.90;;;;;;5072281;28;20463;-71
2023/09/11 02:09:55;;;;;;;19.63;12.10;;;16.50;99.90;;;;;;5072083;28;20479;-71
2023/09/11 02:12:23;;;;;;;17.27;12.63;;;16.50;99.90;;;;;;5072056;28;20536;-69
2023/09/11 02:14:51;;;;;;;16.00;12.03;;;16.40;99.90;;;;;;5072062;28;20525;-71
2023/09/11 02:17:19;;;;;;;15.60;12.07;;;16.40;99.90;;;;;;5071615;28;20454;-71
2023/09/11 02:19:47;;;;;;;16.10;12.13;;;16.30;99.90;;;;;;5071916;28;20477;-70
2023/09/11 02:22:16;;;;;;;18.03;12.70;;;16.30;99.90;;;;;;5071861;28;20464;-71
2023/09/11 02:24:44;;;;;;;17.60;12.70;;;16.30;99.90;;;;;;5073082;28;21941;-71
2023/09/11 02:27:12;;;;;;;16.07;12.10;;;16.30;99.90;;;;;;5073348;28;20497;-72
2023/09/11 02:29:40;;;;;;;19.50;11.87;;;16.30;99.90;;;;;;5072188;28;20842;-72
2023/09/11 02:32:08;;;;;;;17.30;13.00;;;16.40;99.90;;;;;;5071610;28;20877;-72
2023/09/11 02:34:36;;;;;;;17.83;11.37;;;16.40;99.90;;;;;;5071539;28;20455;-73
2023/09/11 02:37:04;;;;;;;16.80;11.60;;;16.40;99.90;;;;;;5072125;28;20546;-73
2023/09/11 02:39:35;;;;;;;18.93;12.07;;;16.40;99.90;;;;;;5071704;28;20528;-72
2023/09/11 02:42:04;;;;;;;17.20;11.77;;;16.40;99.90;;;;;;5071884;28;20454;-72
2023/09/11 02:44:32;;;;;;;16.53;11.37;;;16.40;99.90;;;;;;5070840;28;20868;-72
2023/09/11 02:47:00;;;;;;;18.60;12.50;;;16.40;99.90;;;;;;5071631;28;20439;-72
2023/09/11 02:49:27;;;;;;;16.40;11.50;;;16.40;99.90;;;;;;5071079;28;20467;-72
2023/09/11 02:51:55;;;;;;;19.73;12.80;;;16.40;99.90;;;;;;5071687;28;20447;-72
2023/09/11 02:54:23;;;;;;;18.60;12.40;;;16.40;99.90;;;;;;5070922;28;20497;-72
2023/09/11 02:56:53;;;;;;;17.23;12.53;;;16.40;99.90;;;;;;5071566;28;20450;-73
2023/09/11 02:59:21;;;;;;;16.87;11.90;;;16.40;99.90;;;;;;5071033;28;20858;-73
2023/09/11 03:01:49;;;;;;;16.57;12.10;;;16.40;99.90;;;;;;5071465;28;20447;-72
2023/09/11 03:04:16;;;;;;;15.50;11.60;;;16.40;99.90;;;;;;5071302;28;20866;-73
2023/09/11 03:06:44;;;;;;;18.00;12.57;;;16.30;99.90;;;;;;5070934;28;20450;-72
2023/09/11 03:09:12;;;;;;;16.20;10.57;;;16.30;99.90;;;;;;5071151;28;20546;-71
2023/09/11 03:11:40;;;;;;;18.33;11.77;;;16.40;99.90;;;;;;5070893;28;20439;-72
2023/09/11 03:14:11;;;;;;;16.43;12.20;;;16.30;99.90;;;;;;5071112;28;20486;-72
2023/09/11 03:16:43;;;;;;;16.77;12.93;;;16.30;99.90;;;;;;5070748;28;20450;-72
2023/09/11 03:19:11;;;;;;;17.93;12.63;;;16.30;99.90;;;;;;5071089;28;20524;-72
2023/09/11 03:21:39;;;;;;;17.10;12.50;;;16.30;99.90;;;;;;5070790;28;21016;-72
2023/09/11 03:24:08;;;;;;;16.87;12.30;;;16.20;99.90;;;;;;5070633;28;20459;-69
2023/09/11 03:26:37;;;;;;;17.97;12.10;;;16.10;99.90;;;;;;5070527;28;20530;-72
2023/09/11 03:29:05;;;;;;;17.70;13.10;;;16.10;99.90;;;;;;5070047;28;20546;-72
2023/09/11 03:31:34;;;;;;;16.47;12.07;;;16.00;99.90;;;;;;5070777;28;20447;-72
2023/09/11 03:34:02;;;;;;;20.33;14.10;;;15.90;99.90;;;;;;5069922;28;20540;-72
2023/09/11 03:36:30;;;;;;;19.47;14.47;;;15.80;99.90;;;;;;5070399;28;20861;-71
2023/09/11 03:38:58;;;;;;;18.30;14.17;;;15.70;99.90;;;;;;5070094;28;20459;-71
2023/09/11 03:41:26;;;;;;;20.27;14.33;;;15.70;99.90;;;;;;5062357;28;20890;-72
2023/09/11 03:43:54;;;;;;;18.23;14.23;;;15.70;99.90;;;;;;5050010;28;20937;-71
2023/09/11 03:46:22;;;;;;;18.07;12.77;;;15.70;99.90;;;;;;5050432;28;20451;-72
2023/09/11 03:48:52;;;;;;;16.90;12.80;;;15.70;99.90;;;;;;5050315;28;20543;-72
2023/09/11 03:51:20;;;;;;;17.53;12.10;;;15.80;99.90;;;;;;5050141;28;20506;-72
2023/09/11 03:53:50;;;;;;;17.33;12.70;;;15.70;99.90;;;;;;5049959;28;20492;-72
2023/09/11 03:56:18;;;;;;;20.27;14.07;;;15.70;99.90;;;;;;5049827;28;20452;-75
2023/09/11 03:58:46;;;;;;;18.17;13.23;;;15.60;99.90;;;;;;5050169;28;20533;-73
2023/09/11 04:01:14;;;;;;;19.50;15.27;;;15.60;99.90;;;;;;5050367;28;20543;-71
2023/09/11 04:03:43;;;;;;;18.67;15.30;;;15.60;99.90;;;;;;5049832;28;20448;-70
2023/09/11 04:06:13;;;;;;;23.30;14.63;;;15.70;99.90;;;;;;5049926;28;20458;-72
2023/09/11 04:08:41;;;;;;;19.53;14.53;;;15.70;99.90;;;;;;5049675;28;21004;-72
2023/09/11 04:11:09;;;;;;;19.07;14.00;;;15.70;99.90;;;;;;5050177;28;20487;-72
2023/09/11 04:13:37;;;;;;;22.10;14.67;;;15.60;99.90;;;;;;5049833;28;20553;-72
2023/09/11 04:16:06;;;;;;;18.13;14.50;;;15.60;99.90;;;;;;5049438;28;20519;-72
2023/09/11 04:18:34;;;;;;;18.90;14.10;;;15.50;99.90;;;;;;5049631;28;20893;-71
2023/09/11 04:21:03;;;;;;;17.70;13.90;;;15.50;99.90;;;;;;5050066;28;20447;-72
2023/09/11 04:23:32;;;;;;;19.17;14.80;;;15.50;99.90;;;;;;5058357;28;20485;-70
2023/09/11 04:26:00;;;;;;;22.47;15.37;;;15.50;99.90;;;;;;5069426;28;20451;-71
2023/09/11 04:28:28;;;;;;;19.20;14.47;;;15.40;99.90;;;;;;5069417;28;20482;-72
2023/09/11 04:30:56;;;;;;;18.10;14.10;;;15.50;99.90;;;;;;5069756;28;20503;-72
2023/09/11 04:33:25;;;;;;;20.40;14.87;;;15.50;99.90;;;;;;5069157;28;20984;-69
2023/09/11 04:35:53;;;;;;;19.70;13.80;;;15.40;99.90;;;;;;5069425;28;20479;-70
2023/09/11 04:38:21;;;;;;;18.73;13.70;;;15.40;99.90;;;;;;5061725;28;20818;-71
2023/09/11 04:40:56;;;;;;;19.87;14.90;;;15.40;99.90;;;;;;5049624;28;20469;-70
2023/09/11 04:43:24;;;;;;;19.23;15.07;;;15.30;99.90;;;;;;5049188;28;20447;-70
2023/09/11 04:45:52;;;;;;;19.53;14.33;;;15.30;99.90;;;;;;5049079;28;20506;-71
2023/09/11 04:48:20;;;;;;;18.67;13.73;;;15.30;99.90;;;;;;5049545;28;20455;-70
2023/09/11 04:50:48;;;;;;;20.23;15.70;;;15.20;99.90;;;;;;5050477;28;20950;-71
2023/09/11 04:53:16;;;;;;;21.83;15.90;;;15.30;99.90;;;;;;5069259;28;20905;-72
2023/09/11 04:55:44;;;;;;;22.57;15.70;;;15.30;99.90;;;;;;5069073;28;20449;-71
2023/09/11 04:58:13;;;;;;;20.07;15.47;;;15.30;99.90;;;;;;5069571;28;20556;-71
2023/09/11 05:00:42;;;;;;;22.30;16.23;;;15.40;99.90;;;;;;5069063;28;20456;-71
2023/09/11 05:03:10;;;;;;;21.60;16.20;;;15.40;99.90;;;;;;5064286;28;20451;-71
2023/09/11 05:05:40;;;;;;;23.00;16.77;;;15.50;99.90;;;;;;5056897;28;20438;-69
2023/09/11 05:08:09;;;;;;;23.20;16.30;;;15.50;99.90;;;;;;5069567;28;20465;-70
2023/09/11 05:10:41;;;;;;;22.23;16.30;;;15.40;99.90;;;;;;5069151;28;20815;-68
2023/09/11 05:13:09;;;;;;;23.90;18.23;;;15.30;99.90;;;;;;5069035;28;20449;-68
2023/09/11 05:15:38;;;;;;;24.60;17.33;;;15.30;99.90;;;;;;5069003;28;20483;-69
2023/09/11 05:18:06;;;;;;;22.03;16.77;;;15.30;99.90;;;;;;5068762;28;20449;-70
2023/09/11 05:20:35;;;;;;;26.43;17.70;;;15.30;99.90;;;;;;5069173;28;20535;-69
2023/09/11 05:23:03;;;;;;;25.50;17.20;;;15.50;99.90;;;;;;5058209;28;20439;-69
2023/09/11 05:25:31;;;;;;;20.53;16.30;;;15.50;99.90;;;;;;5055869;28;20437;-70
2023/09/11 05:27:58;;;;;;;23.00;16.07;;;15.50;99.90;;;;;;5068781;28;20965;-70
2023/09/11 05:30:26;;;;;;;21.40;15.60;;;15.50;99.90;;;;;;5069125;28;20471;-69
2023/09/11 05:32:56;;;;;;;23.90;16.90;;;15.50;99.90;;;;;;5068048;28;20473;-68
2023/09/11 05:35:24;;;;;;;24.50;16.67;;;15.50;99.90;;;;;;5066165;28;20509;-68
2023/09/11 05:37:52;;;;;;;22.87;16.60;;;15.60;99.90;;;;;;5060982;28;20443;-69
2023/09/11 05:40:20;;;;;;;19.93;15.67;;;15.60;99.90;;;;;;5059228;28;20554;-69
2023/09/11 05:42:48;;;;;;;23.43;15.70;;;15.60;99.90;;;;;;5068995;28;20536;-70
2023/09/11 05:45:16;;;;;;;21.50;16.07;;;15.60;99.90;;;;;;5069121;28;20445;-70
2023/09/11 05:47:44;;;;;;;22.17;16.03;;;15.70;99.90;;;;;;5070090;28;20458;-70
2023/09/11 05:50:14;;;;;;;24.93;17.40;;;15.70;99.90;;;;;;5069811;28;20558;-70
2023/09/11 05:52:42;;;;;;;25.17;16.57;;;15.70;99.90;;;;;;5073727;28;20998;-69
2023/09/11 05:55:10;;;;;;;21.33;15.30;;;15.70;99.90;;;;;;5072653;28;20493;-70
2023/09/11 05:57:38;;;;;;;23.07;16.30;;;15.80;99.90;;;;;;5072617;28;20447;-70
2023/09/11 06:00:12;;;;;;;22.20;16.27;;;15.90;99.90;;;;;;5072413;28;20823;-70
2023/09/11 06:02:41;;;;;;;25.50;15.27;;;16.00;99.90;;;;;;5072003;28;20446;-68
2023/09/11 06:05:09;;;;;;;19.80;15.03;;;16.00;99.90;;;;;;5072304;28;20461;-69
2023/09/11 06:07:38;;;;;;;20.60;16.07;;;16.10;99.90;;;;;;5072466;28;20447;-68
2023/09/11 06:10:10;;;;;;;20.90;15.17;;;16.20;99.90;;;;;;5072143;28;20479;-69
2023/09/11 06:12:38;;;;;;;20.27;14.70;;;16.40;99.90;;;;;;5071942;28;20455;-69
2023/09/11 06:15:07;;;;;;;20.53;15.47;;;16.40;99.90;;;;;;5071856;28;20483;-70
2023/09/11 06:17:35;;;;;;;17.97;14.10;;;16.50;99.90;;;;;;5072498;28;20439;-69
2023/09/11 06:20:15;;;;;;;20.53;14.20;;;16.50;99.90;;;;;;5072436;28;20572;-69
2023/09/11 06:22:45;;;;;;;23.07;15.37;;;16.70;99.90;;;;;;5072030;28;20484;-68
2023/09/11 06:25:13;;;;;;;18.80;14.70;;;16.70;99.90;;;;;;5072035;28;20462;-69
2023/09/11 06:27:41;;;;;;;19.50;15.43;;;16.80;99.90;;;;;;5072299;28;20471;-69
2023/09/11 06:30:09;;;;;;;19.87;15.20;;;16.90;99.90;;;;;;5072396;28;20648;-69
2023/09/11 06:32:37;;;;;;;19.27;14.73;;;17.00;99.90;;;;;;5071772;28;20940;-69
2023/09/11 06:35:07;;;;;;;20.27;14.50;;;17.10;99.90;;;;;;5071796;28;20876;-69
2023/09/11 06:37:35;;;;;;;18.13;13.50;;;17.20;99.90;;;;;;5071895;28;20494;-69
2023/09/11 06:40:07;;;;;;;17.73;14.27;;;17.30;99.90;;;;;;5071788;28;20992;-70
2023/09/11 06:42:36;;;;;;;20.27;14.33;;;17.40;99.90;;;;;;5071686;28;20864;-69
2023/09/11 06:45:04;;;;;;;22.67;14.70;;;17.50;99.90;;;;;;5071627;28;20956;-69
2023/09/11 06:47:33;;;;;;;18.73;14.23;;;17.60;99.90;;;;;;5071691;28;20473;-70
2023/09/11 06:50:01;;;;;;;15.57;11.97;;;17.80;99.90;;;;;;5071995;28;20471;-71
2023/09/11 06:52:29;;;;;;;20.60;14.53;;;17.90;99.90;;;;;;5071595;28;20647;-70
2023/09/11 06:54:57;;;;;;;19.47;13.60;;;18.00;99.90;;;;;;5071368;28;20882;-70
2023/09/11 06:57:27;;;;;;;19.90;12.60;;;18.30;99.90;;;;;;5071683;28;20921;-71
2023/09/11 06:59:55;;;;;;;18.67;14.23;;;18.50;99.90;;;;;;5071420;28;20994;-71
2023/09/11 07:02:23;;;;;;;19.83;12.43;;;18.80;99.90;;;;;;5069945;28;21273;-71
2023/09/11 07:04:51;;;;;;;15.83;12.80;;;18.90;99.90;;;;;;5071117;28;20538;-71
2023/09/11 07:07:19;;;;;;;16.80;12.43;;;19.10;99.90;;;;;;5071756;28;20538;-70
2023/09/11 07:09:48;;;;;;;15.67;12.20;;;19.30;99.90;;;;;;5071559;28;20555;-71
2023/09/11 07:12:20;;;;;;;18.40;12.50;;;19.40;99.90;;;;;;5071120;28;20453;-70
2023/09/11 07:14:54;;;;;;;19.73;13.40;;;19.60;99.90;;;;;;5071013;28;20490;-70
2023/09/11 07:17:22;;;;;;;18.13;13.20;;;19.60;99.90;;;;;;5071283;28;20526;-68
2023/09/11 07:19:50;;;;;;;15.70;11.60;;;19.80;99.90;;;;;;5071386;28;20528;-66
2023/09/11 07:22:18;;;;;;;17.80;12.60;;;19.80;99.90;;;;;;5071459;28;20489;-68
2023/09/11 07:24:46;;;;;;;19.00;13.30;;;19.90;99.90;;;;;;5070836;28;20451;-68
2023/09/11 07:27:14;;;;;;;18.23;12.70;;;20.00;99.90;;;;;;5071192;28;20534;-68
2023/09/11 07:29:42;;;;;;;15.80;11.50;;;20.10;99.90;;;;;;5070724;28;20475;-68
2023/09/11 07:32:11;;;;;;;18.20;12.23;;;20.20;99.90;;;;;;5070679;28;20451;-69
2023/09/11 07:34:39;;;;;;;22.97;12.67;;;20.20;99.90;;;;;;5070432;28;20443;-68
2023/09/11 07:37:07;;;;;;;18.40;11.60;;;20.30;99.90;;;;;;5070992;28;20501;-67
2023/09/11 07:39:35;;;;;;;14.50;11.33;;;20.50;99.90;;;;;;5070507;28;20524;-68
2023/09/11 07:42:03;;;;;;;17.80;12.43;;;20.60;99.90;;;;;;5070636;28;21230;-68
2023/09/11 07:44:31;;;;;;;16.50;11.07;;;20.70;99.90;;;;;;5070126;28;20542;-70
2023/09/11 07:46:59;;;;;;;16.70;11.43;;;20.90;99.90;;;;;;5070425;28;20493;-68
2023/09/11 07:49:29;;;;;;;16.30;11.80;;;20.90;99.90;;;;;;5070384;28;20547;-69
2023/09/11 07:51:57;;;;;;;18.60;11.00;;;21.00;99.90;;;;;;5070631;28;20447;-69
2023/09/11 07:54:25;;;;;;;16.93;10.80;;;21.20;99.90;;;;;;5070242;28;20447;-69
2023/09/11 07:56:53;;;;;;;18.30;12.00;;;21.40;99.90;;;;;;5070172;28;20486;-68
2023/09/11 07:59:21;;;;;;;13.60;10.40;;;21.50;99.90;;;;;;5070098;28;20474;-68
2023/09/11 08:01:49;;;;;;;16.20;10.80;;;21.70;99.90;;;;;;5070009;28;20499;-68
2023/09/11 08:04:17;;;;;;;13.80;10.50;;;21.80;99.90;;;;;;5070088;28;20450;-68
2023/09/11 08:06:47;;;;;;;14.17;10.33;;;22.00;99.90;;;;;;5070134;28;20446;-68
2023/09/11 08:09:15;;;;;;;17.73;11.60;;;22.20;99.90;;;;;;5070115;28;20554;-69
2023/09/11 08:11:43;;;;;;;14.40;10.33;;;22.40;99.90;;;;;;5069931;28;20834;-69
2023/09/11 08:14:11;;;;;;;13.87;9.50;;;22.60;99.90;;;;;;5069714;28;20454;-68
2023/09/11 08:16:38;;;;;;;14.97;9.60;;;22.70;99.90;;;;;;5069778;28;21035;-68
2023/09/11 08:19:06;;;;;;;13.63;9.50;;;22.80;99.90;;;;;;5070105;28;20540;-66
2023/09/11 08:21:34;;;;;;;15.30;9.80;;;22.90;99.90;;;;;;5069945;28;20454;-68
2023/09/11 08:24:04;;;;;;;16.07;10.00;;;22.90;99.90;;;;;;5069723;28;20446;-68
2023/09/11 08:26:33;;;;;;;14.27;8.87;;;23.00;99.90;;;;;;5069848;28;20444;-69
2023/09/11 08:29:02;;;;;;;16.10;10.00;;;23.10;99.90;;;;;;5069751;28;20467;-69
2023/09/11 08:31:30;;;;;;;16.10;9.43;;;23.20;99.90;;;;;;5069856;28;20458;-68
2023/09/11 08:33:58;;;;;;;14.77;9.40;;;23.30;99.90;;;;;;5069259;28;20891;-68
2023/09/11 08:36:27;;;;;;;13.93;9.53;;;23.50;99.90;;;;;;5069410;28;20578;-69
2023/09/11 08:38:55;;;;;;;13.17;9.37;;;23.50;99.90;;;;;;5069867;28;20470;-69
2023/09/11 08:41:27;;;;;;;13.17;9.43;;;23.70;99.90;;;;;;5069845;28;20454;-70
2023/09/11 08:43:54;;;;;;;17.23;9.60;;;23.80;99.90;;;;;;5069226;28;20449;-69
2023/09/11 08:46:24;;;;;;;16.40;10.57;;;24.00;99.90;;;;;;5069314;28;20534;-70
2023/09/11 08:48:57;;;;;;;15.73;10.07;;;24.20;99.90;;;;;;5069456;28;20467;-70
2023/09/11 08:51:32;;;;;;;16.43;10.60;;;24.40;99.90;;;;;;5069534;28;20443;-70
2023/09/11 08:54:04;;;;;;;13.23;9.37;;;24.40;99.90;;;;;;5069538;28;20493;-69
2023/09/11 08:56:33;;;;;;;14.53;10.90;;;24.50;99.90;;;;;;5069346;28;20489;-70
2023/09/11 08:59:03;;;;;;;15.97;10.10;;;24.60;99.90;;;;;;5069685;28;20552;-69
2023/09/11 09:01:31;;;;;;;17.60;10.53;;;24.80;99.90;;;;;;5069488;28;20454;-68
2023/09/11 09:04:01;;;;;;;21.57;11.80;;;25.00;99.90;;;;;;5069058;28;20482;-69
2023/09/11 09:06:30;;;;;;;14.87;10.20;;;25.30;99.90;;;;;;5069142;28;20968;-70
2023/09/11 09:08:58;;;;;;;16.53;11.43;;;25.50;99.90;;;;;;5069098;28;20490;-69
2023/09/11 09:11:27;;;;;;;15.80;11.00;;;25.80;99.90;;;;;;5069346;28;20542;-69
2023/09/11 09:13:57;;;;;;;13.93;9.90;;;26.00;99.90;;;;;;5068665;28;20463;-69
2023/09/11 09:16:25;;;;;;;17.63;10.50;;;26.30;99.90;;;;;;5068851;28;20532;-69
2023/09/11 09:18:53;;;;;;;15.13;10.87;;;26.50;99.90;;;;;;5069245;28;20525;-70
2023/09/11 09:21:25;;;;;;;15.67;11.27;;;27.00;99.90;;;;;;5069432;28;20504;-70
2023/09/11 09:23:57;;;;;;;17.27;11.00;;;27.10;99.90;;;;;;5068944;28;20478;-70
2023/09/11 09:26:25;;;;;;;15.23;9.40;;;27.40;99.90;;;;;;5071132;28;20442;-70
2023/09/11 09:28:55;;;;;;;13.20;8.90;;;27.80;99.90;;;;;;5072985;28;20519;-70
2023/09/11 09:31:25;;;;;;;14.40;10.20;;;28.30;99.90;;;;;;5073671;28;20841;-70
2023/09/11 09:33:55;;;;;;;14.30;8.93;;;28.60;99.90;;;;;;5073041;28;20459;-70
2023/09/11 09:36:26;;;;;;;12.20;9.90;;;29.00;99.90;;;;;;5072740;28;21233;-69
2023/09/11 09:38:54;;;;;;;17.57;9.97;;;29.20;99.50;;;;;;5072850;28;20929;-71
2023/09/11 09:41:23;;;;;;;15.13;9.40;;;29.30;96.20;;;;;;5073007;28;20442;-69
2023/09/11 09:43:54;;;;;;;11.20;8.13;;;29.50;96.30;;;;;;5072460;28;20961;-70
2023/09/11 09:46:23;;;;;;;13.70;8.27;;;29.60;94.90;;;;;;5072742;28;20500;-70
2023/09/11 09:48:53;;;;;;;11.50;8.90;;;29.70;94.20;;;;;;5072569;28;20471;-70
2023/09/11 09:51:21;;;;;;;11.50;8.80;;;29.90;92.30;;;;;;5072896;28;20451;-70
2023/09/11 09:53:54;;;;;;;13.13;8.60;;;30.00;90.50;;;;;;5072100;28;20443;-70
2023/09/11 09:56:22;;;;;;;12.40;9.33;;;30.20;91.20;;;;;;5072690;28;20562;-70
2023/09/11 09:58:53;;;;;;;14.43;9.17;;;30.40;84.40;;;;;;5072730;28;20636;-70
2023/09/11 10:01:22;;;;;;;19.37;10.00;;;29.80;84.80;;;;;;5072623;28;20479;-70
2023/09/11 10:03:54;;;;;;;14.73;9.10;;;29.70;89.30;;;;;;5072178;28;20439;-70
2023/09/11 10:06:26;;;;;;;15.67;9.17;;;29.80;84.80;;;;;;5072302;28;20447;-70
2023/09/11 10:09:06;;;;;;;12.10;8.83;;;30.20;81.10;;;;;;5072233;28;20477;-70
2023/09/11 10:11:35;;;;;;;12.63;8.00;;;30.40;80.80;;;;;;5072477;28;20462;-70
2023/09/11 10:14:05;;;;;;;13.70;8.30;;;30.60;79.30;;;;;;5072110;28;20803;-70
2023/09/11 10:16:33;;;;;;;14.33;9.10;;;30.80;79.30;;;;;;5071987;28;20482;-70
2023/09/11 10:19:04;;;;;;;13.80;8.17;;;31.10;77.50;;;;;;5072456;28;20887;-70
2023/09/11 10:21:34;;;;;;;12.63;8.10;;;31.20;74.80;;;;;;5072023;28;20447;-70
2023/09/11 10:24:02;;;;;;;12.20;7.67;;;31.30;74.80;;;;;;5071914;28;20823;-70
2023/09/11 10:26:36;;;;;;;13.83;7.67;;;31.60;72.20;;;;;;5071892;28;20575;-70
2023/09/11 10:29:07;;;;;;;14.53;9.23;;;31.90;70.80;;;;;;5063998;28;20470;-67
2023/09/11 10:31:43;;;;;;;14.07;8.03;;;32.00;67.70;;;;;;5072367;28;20439;-70
2023/09/11 10:34:12;;;;;;;12.73;8.57;;;31.60;69.00;;;;;;5071702;28;20534;-69
2023/09/11 10:36:47;;;;;;;14.97;8.30;;;31.50;65.90;;;;;;5071389;28;20508;-69
2023/09/11 10:39:17;;;;;;;12.67;7.70;;;31.70;65.50;;;;;;5071618;28;20995;-69
2023/09/11 10:41:45;;;;;;;13.53;8.17;;;32.00;65.20;;;;;;5071676;28;20457;-69
2023/09/11 10:44:15;;;;;;;14.17;8.77;;;31.90;64.90;;;;;;5071700;28;20459;-69
2023/09/11 10:46:49;;;;;;;13.93;8.10;;;31.80;63.30;;;;;;5071488;28;20447;-69
2023/09/11 10:49:22;;;;;;;16.80;9.07;;;31.90;64.60;;;;;;5071896;28;20467;-69
2023/09/11 10:51:51;;;;;;;12.37;8.50;;;32.30;62.80;;;;;;5071689;28;20447;-69
2023/09/11 10:54:24;;;;;;;15.30;9.37;;;32.80;59.50;;;;;;5071345;28;20841;-69
2023/09/11 10:56:53;;;;;;;12.50;8.40;;;32.80;60.70;;;;;;5071543;28;20602;-70
2023/09/11 10:59:23;;;;;;;12.70;8.00;;;33.30;58.80;;;;;;5071558;28;20467;-67
2023/09/11 11:01:53;;;;;;;13.77;8.70;;;33.80;57.20;;;;;;5071942;28;20457;-69
2023/09/11 11:04:24;;;;;;;14.03;8.00;;;34.30;57.50;;;;;;5071423;28;20535;-70
2023/09/11 11:06:56;;;;;;;16.87;9.20;;;34.30;57.50;;;;;;5071577;28;20847;-70
2023/09/11 11:09:25;;;;;;;14.60;8.90;;;34.40;58.50;;;;;;5071528;28;20474;-69
2023/09/11 11:11:58;;;;;;;17.37;7.70;;;34.90;56.90;;;;;;5028722;28;20476;-70
2023/09/11 11:14:26;;;;;;;15.77;8.70;;;35.40;56.00;;;;;;5028148;28;21223;-68
2023/09/11 11:17:00;;;;;;;17.20;8.10;;;35.90;54.70;;;;;;5028341;28;20566;-69
2023/09/11 11:19:31;;;;;;;14.60;8.70;;;36.00;52.20;;;;;;5028365;28;20514;-70
2023/09/11 11:22:01;;;;;;;13.73;8.37;;;36.00;51.00;;;;;;5028358;28;20455;-70
2023/09/11 11:24:34;;;;;;;14.40;9.10;;;35.70;50.50;;;;;;5028328;28;20457;-69
2023/09/11 11:27:04;;;;;;;14.90;8.77;;;35.00;51.70;;;;;;5027644;28;20437;-69
2023/09/11 11:29:33;;;;;;;13.80;8.60;;;34.70;53.50;;;;;;5033478;28;20471;-69
2023/09/11 11:32:04;;;;;;;14.63;9.00;;;35.00;51.20;;;;;;5070549;28;20463;-69
2023/09/11 11:34:35;;;;;;;12.63;7.10;;;34.50;51.90;;;;;;5070571;28;20455;-69
2023/09/11 11:37:04;;;;;;;14.50;8.23;;;34.70;53.00;;;;;;5070622;28;20474;-69
2023/09/11 11:39:36;;;;;;;12.50;7.23;;;35.30;51.90;;;;;;5070066;28;20470;-70
2023/09/11 11:42:07;;;;;;;12.27;8.03;;;36.00;49.90;;;;;;5058801;28;20947;-71
2023/09/11 11:44:36;;;;;;;11.53;7.53;;;36.80;47.50;;;;;;5050038;28;20447;-69
2023/09/11 11:47:06;;;;;;;14.10;8.60;;;37.30;47.60;;;;;;5050742;28;20510;-70
2023/09/11 11:49:37;;;;;;;12.40;7.33;;;38.00;46.90;;;;;;5050107;28;20498;-69
2023/09/11 11:52:06;;;;;;;12.77;6.60;;;38.30;45.50;;;;;;5062492;28;20821;-70
2023/09/11 11:54:35;;;;;;;14.00;7.93;;;38.80;44.40;;;;;;5069294;28;20542;-70
2023/09/11 11:57:05;;;;;;;13.50;6.47;;;39.20;43.30;;;;;;5055202;28;20446;-70
2023/09/11 11:59:35;;;;;;;12.73;7.20;;;39.60;45.00;;;;;;5056932;28;20477;-70
2023/09/11 12:02:03;;;;;;;14.40;7.40;;;39.90;40.80;;;;;;5054794;28;20939;-69
2023/09/11 12:04:32;;;;;;;10.63;6.60;;;39.30;40.60;;;;;;5053954;28;20459;-70
2023/09/11 12:07:18;;;;;;;12.77;7.77;;;38.20;42.30;;;;;;5056885;28;20463;-68
2023/09/11 12:09:46;;;;;;;13.60;7.67;;;37.20;43.10;;;;;;5052319;28;20464;-68
2023/09/11 12:12:15;;;;;;;15.70;6.93;;;36.60;44.00;;;;;;5049724;28;20448;-68
2023/09/11 12:14:43;;;;;;;13.43;7.50;;;36.10;44.30;;;;;;5049608;28;20979;-68
2023/09/11 12:17:11;;;;;;;26.43;9.20;;;35.70;45.40;;;;;;5049736;28;20957;-68
2023/09/11 12:19:39;;;;;;;13.97;7.07;;;35.80;44.80;;;;;;5049911;28;20479;-70
2023/09/11 12:22:08;;;;;;;14.30;7.10;;;36.40;44.10;;;;;;5061878;28;20443;-69
2023/09/11 12:24:38;;;;;;;12.13;7.50;;;36.10;44.20;;;;;;5069500;28;20443;-69
2023/09/11 12:27:07;;;;;;;11.47;7.30;;;36.30;43.70;;;;;;5069691;28;20485;-69
2023/09/11 12:29:35;;;;;;;10.80;6.80;;;37.10;44.60;;;;;;5069636;28;20459;-70
2023/09/11 12:32:04;;;;;;;11.77;7.30;;;37.70;42.30;;;;;;5069321;28;20967;-70
2023/09/11 12:34:43;;;;;;;10.97;6.60;;;37.50;41.30;;;;;;5069547;28;20446;-69
2023/09/11 12:37:11;;;;;;;13.97;8.10;;;38.20;42.60;;;;;;5067901;28;20443;-68
2023/09/11 12:39:41;;;;;;;12.30;6.40;;;38.20;40.20;;;;;;5069321;28;20512;-69
2023/09/11 12:42:09;;;;;;;13.17;6.73;;;38.50;40.20;;;;;;5061790;28;20455;-70